sensor_id;sensor_type;location;lat;lon;timestamp;temperature;humidity
41928;DHT22;27616;51.420;6.788;2024-03-07T00:00:13;4.60;99.90
41928;DHT22;27616;51.420;6.788;2024-03-07T00:02:48;4.60;99.90
41928;DHT22;27616;51.420;6.788;2024-03-07T00:05:19;4.60;99.90
41928;DHT22;27616;51.420;6.788;2024-03-07T00:07:45;4.50;99.90
41928;DHT22;27616;51.420;6.788;2024-03-07T00:10:12;4.50;99.90
41928;DHT22;27616;51.420;6.788;2024-03-07T00:12:39;4.40;99.90
41928;DHT22;27616;51.420;6.788;2024-03-07T00:15:10;4.40;99.90
41928;DHT22;27616;51.420;6.788;2024-03-07T00:17:37;4.40;99.90
41928;DHT22;27616;51.420;6.788;2024-03-07T00:20:03;4.40;99.90
41928;DHT22;27616;51.420;6.788;2024-03-07T00:22:34;4.40;99.90
41928;DHT22;27616;51.420;6.788;2024-03-07T00:24:59;4.40;99.90
41928;DHT22;27616;51.420;6.788;2024-03-07T00:27:25;4.40;99.90
41928;DHT22;27616;51.420;6.788;2024-03-07T00:29:51;4.40;99.90
41928;DHT22;27616;51.420;6.788;2024-03-07T00:32:20;4.40;99.90
41928;DHT22;27616;51.420;6.788;2024-03-07T00:34:47;4.40;99.90
41928;DHT22;27616;51.420;6.788;2024-03-07T00:37:12;4.40;99.90
41928;DHT22;27616;51.420;6.788;2024-03-07T00:39:38;4.30;99.90
41928;DHT22;27616;51.420;6.788;2024-03-07T00:42:04;4.40;99.90
41928;DHT22;27616;51.420;6.788;2024-03-07T00:44:30;4.40;99.90
41928;DHT22;27616;51.420;6.788;2024-03-07T00:46:56;4.30;99.90
41928;DHT22;27616;51.420;6.788;2024-03-07T00:49:23;4.30;99.90
41928;DHT22;27616;51.420;6.788;2024-03-07T00:51:48;4.30;99.90
41928;DHT22;27616;51.420;6.788;2024-03-07T00:54:14;4.30;99.90
41928;DHT22;27616;51.420;6.788;2024-03-07T00:56:40;4.30;99.90
41928;DHT22;27616;51.420;6.788;2024-03-07T00:59:06;4.30;99.90
41928;DHT22;27616;51.420;6.788;2024-03-07T01:01:32;4.30;99.90
41928;DHT22;27616;51.420;6.788;2024-03-07T01:04:00;4.30;99.90
41928;DHT22;27616;51.420;6.788;2024-03-07T01:06:26;4.20;99.90
41928;DHT22;27616;51.420;6.788;2024-03-07T01:08:51;4.20;99.90
41928;DHT22;27616;51.420;6.788;2024-03-07T01:11:17;4.20;99.90
41928;DHT22;27616;51.420;6.788;2024-03-07T01:13:43;4.20;99.90
41928;DHT22;27616;51.420;6.788;2024-03-07T01:16:09;4.20;99.90
41928;DHT22;27616;51.420;6.788;2024-03-07T01:18:35;4.20;99.90
41928;DHT22;27616;51.420;6.788;2024-03-07T01:21:02;4.20;99.90
41928;DHT22;27616;51.420;6.788;2024-03-07T01:23:28;4.20;99.90
41928;DHT22;27616;51.420;6.788;2024-03-07T01:25:56;4.10;99.90
41928;DHT22;27616;51.420;6.788;2024-03-07T01:28:27;4.10;99.90
41928;DHT22;27616;51.420;6.788;2024-03-07T01:30:56;4.10;99.90
41928;DHT22;27616;51.420;6.788;2024-03-07T01:33:23;4.10;99.90
41928;DHT22;27616;51.420;6.788;2024-03-07T01:35:49;4.10;99.90
41928;DHT22;27616;51.420;6.788;2024-03-07T01:38:15;4.10;99.90
41928;DHT22;27616;51.420;6.788;2024-03-07T01:40:41;4.10;99.90
41928;DHT22;27616;51.420;6.788;2024-03-07T01:43:08;4.10;99.90
41928;DHT22;27616;51.420;6.788;2024-03-07T01:45:34;4.10;99.90
41928;DHT22;27616;51.420;6.788;2024-03-07T01:48:06;4.10;99.90
41928;DHT22;27616;51.420;6.788;2024-03-07T01:50:35;4.10;99.90
41928;DHT22;27616;51.420;6.788;2024-03-07T01:53:04;4.10;99.90
41928;DHT22;27616;51.420;6.788;2024-03-07T01:55:31;4.20;99.90
41928;DHT22;27616;51.420;6.788;2024-03-07T01:57:59;4.20;99.90
41928;DHT22;27616;51.420;6.788;2024-03-07T02:00:27;4.30;99.90
41928;DHT22;27616;51.420;6.788;2024-03-07T02:02:53;4.30;99.90
41928;DHT22;27616;51.420;6.788;2024-03-07T02:05:20;4.30;99.90
41928;DHT22;27616;51.420;6.788;2024-03-07T02:07:46;4.30;99.90
41928;DHT22;27616;51.420;6.788;2024-03-07T02:10:12;4.30;99.90
41928;DHT22;27616;51.420;6.788;2024-03-07T02:12:38;4.30;99.90
41928;DHT22;27616;51.420;6.788;2024-03-07T02:15:04;4.20;99.90
41928;DHT22;27616;51.420;6.788;2024-03-07T02:17:30;4.20;99.90
41928;DHT22;27616;51.420;6.788;2024-03-07T02:19:55;4.20;99.90
41928;DHT22;27616;51.420;6.788;2024-03-07T02:22:21;4.20;99.90
41928;DHT22;27616;51.420;6.788;2024-03-07T02:24:47;4.10;99.90
41928;DHT22;27616;51.420;6.788;2024-03-07T02:27:13;4.10;99.90
41928;DHT22;27616;51.420;6.788;2024-03-07T02:29:40;4.10;99.90
41928;DHT22;27616;51.420;6.788;2024-03-07T02:32:06;4.10;99.90
41928;DHT22;27616;51.420;6.788;2024-03-07T02:34:32;4.00;99.90
41928;DHT22;27616;51.420;6.788;2024-03-07T02:36:58;4.00;99.90
41928;DHT22;27616;51.420;6.788;2024-03-07T02:39:24;4.00;99.90
41928;DHT22;27616;51.420;6.788;2024-03-07T02:41:52;3.90;99.90
41928;DHT22;27616;51.420;6.788;2024-03-07T02:44:18;3.90;99.90
41928;DHT22;27616;51.420;6.788;2024-03-07T02:46:45;3.80;99.90
41928;DHT22;27616;51.420;6.788;2024-03-07T02:49:10;3.80;99.90
41928;DHT22;27616;51.420;6.788;2024-03-07T02:51:36;3.80;99.90
41928;DHT22;27616;51.420;6.788;2024-03-07T02:54:02;3.70;99.90
41928;DHT22;27616;51.420;6.788;2024-03-07T02:56:31;3.70;99.90
41928;DHT22;27616;51.420;6.788;2024-03-07T02:58:57;3.70;99.90
41928;DHT22;27616;51.420;6.788;2024-03-07T03:01:22;3.70;99.90
41928;DHT22;27616;51.420;6.788;2024-03-07T03:03:48;3.60;99.90
41928;DHT22;27616;51.420;6.788;2024-03-07T03:06:13;3.60;99.90
41928;DHT22;27616;51.420;6.788;2024-03-07T03:08:39;3.60;99.90
41928;DHT22;27616;51.420;6.788;2024-03-07T03:11:04;3.60;99.90
41928;DHT22;27616;51.420;6.788;2024-03-07T03:13:30;3.50;99.90
41928;DHT22;27616;51.420;6.788;2024-03-07T03:15:56;3.50;99.90
41928;DHT22;27616;51.420;6.788;2024-03-07T03:18:22;3.50;99.90
41928;DHT22;27616;51.420;6.788;2024-03-07T03:20:49;3.50;99.90
41928;DHT22;27616;51.420;6.788;2024-03-07T03:23:15;3.40;99.90
41928;DHT22;27616;51.420;6.788;2024-03-07T03:25:41;3.40;99.90
41928;DHT22;27616;51.420;6.788;2024-03-07T03:28:07;3.40;99.90
41928;DHT22;27616;51.420;6.788;2024-03-07T03:30:37;3.40;99.90
41928;DHT22;27616;51.420;6.788;2024-03-07T03:33:04;3.30;99.90
41928;DHT22;27616;51.420;6.788;2024-03-07T03:35:29;3.30;99.90
41928;DHT22;27616;51.420;6.788;2024-03-07T03:37:55;3.30;99.90
41928;DHT22;27616;51.420;6.788;2024-03-07T03:40:20;3.30;99.90
41928;DHT22;27616;51.420;6.788;2024-03-07T03:42:46;3.30;99.90
41928;DHT22;27616;51.420;6.788;2024-03-07T03:45:11;3.20;99.90
41928;DHT22;27616;51.420;6.788;2024-03-07T03:47:41;3.20;99.90
41928;DHT22;27616;51.420;6.788;2024-03-07T03:50:09;3.20;99.90
41928;DHT22;27616;51.420;6.788;2024-03-07T03:52:35;3.20;99.90
41928;DHT22;27616;51.420;6.788;2024-03-07T03:55:01;3.20;99.90
41928;DHT22;27616;51.420;6.788;2024-03-07T03:57:28;3.20;99.90
41928;DHT22;27616;51.420;6.788;2024-03-07T03:59:55;3.20;99.90
41928;DHT22;27616;51.420;6.788;2024-03-07T04:02:22;3.20;99.90
41928;DHT22;27616;51.420;6.788;2024-03-07T04:04:51;3.20;99.90
41928;DHT22;27616;51.420;6.788;2024-03-07T04:07:18;3.20;99.90
41928;DHT22;27616;51.420;6.788;2024-03-07T04:09:45;3.30;99.90
41928;DHT22;27616;51.420;6.788;2024-03-07T04:12:11;3.30;99.90
41928;DHT22;27616;51.420;6.788;2024-03-07T04:14:40;3.30;99.90
41928;DHT22;27616;51.420;6.788;2024-03-07T04:17:07;3.30;99.90
41928;DHT22;27616;51.420;6.788;2024-03-07T04:19:39;3.30;99.90
41928;DHT22;27616;51.420;6.788;2024-03-07T04:22:05;3.30;99.90
41928;DHT22;27616;51.420;6.788;2024-03-07T04:24:31;3.30;99.90
41928;DHT22;27616;51.420;6.788;2024-03-07T04:27:03;3.30;99.90
41928;DHT22;27616;51.420;6.788;2024-03-07T04:29:30;3.40;99.90
41928;DHT22;27616;51.420;6.788;2024-03-07T04:31:56;3.40;99.90
41928;DHT22;27616;51.420;6.788;2024-03-07T04:34:21;3.40;99.90
41928;DHT22;27616;51.420;6.788;2024-03-07T04:36:47;3.30;99.90
41928;DHT22;27616;51.420;6.788;2024-03-07T04:39:13;3.30;99.90
41928;DHT22;27616;51.420;6.788;2024-03-07T04:41:54;3.30;99.90
41928;DHT22;27616;51.420;6.788;2024-03-07T04:44:20;3.20;99.90
41928;DHT22;27616;51.420;6.788;2024-03-07T04:46:48;3.20;99.90
41928;DHT22;27616;51.420;6.788;2024-03-07T04:49:15;3.20;99.90
41928;DHT22;27616;51.420;6.788;2024-03-07T04:51:41;3.20;99.90
41928;DHT22;27616;51.420;6.788;2024-03-07T04:54:06;3.10;99.90
41928;DHT22;27616;51.420;6.788;2024-03-07T04:56:32;3.10;99.90
41928;DHT22;27616;51.420;6.788;2024-03-07T04:58:57;3.10;99.90
41928;DHT22;27616;51.420;6.788;2024-03-07T05:01:23;3.10;99.90
41928;DHT22;27616;51.420;6.788;2024-03-07T05:03:50;3.10;99.90
41928;DHT22;27616;51.420;6.788;2024-03-07T05:06:18;3.10;99.90
41928;DHT22;27616;51.420;6.788;2024-03-07T05:08:44;3.00;99.90
41928;DHT22;27616;51.420;6.788;2024-03-07T05:11:09;3.00;99.90
41928;DHT22;27616;51.420;6.788;2024-03-07T05:13:36;3.00;99.90
41928;DHT22;27616;51.420;6.788;2024-03-07T05:16:02;3.00;99.90
41928;DHT22;27616;51.420;6.788;2024-03-07T05:18:28;2.90;99.90
41928;DHT22;27616;51.420;6.788;2024-03-07T05:20:54;2.90;99.90
41928;DHT22;27616;51.420;6.788;2024-03-07T05:23:20;2.90;99.90
41928;DHT22;27616;51.420;6.788;2024-03-07T05:25:46;2.80;99.90
41928;DHT22;27616;51.420;6.788;2024-03-07T05:28:11;2.90;99.90
41928;DHT22;27616;51.420;6.788;2024-03-07T05:30:37;2.80;99.90
41928;DHT22;27616;51.420;6.788;2024-03-07T05:33:03;2.80;99.90
41928;DHT22;27616;51.420;6.788;2024-03-07T05:35:29;2.80;99.90
41928;DHT22;27616;51.420;6.788;2024-03-07T05:37:55;2.70;99.90
41928;DHT22;27616;51.420;6.788;2024-03-07T05:40:22;2.70;99.90
41928;DHT22;27616;51.420;6.788;2024-03-07T05:42:48;2.70;99.90
41928;DHT22;27616;51.420;6.788;2024-03-07T05:45:14;2.70;99.90
41928;DHT22;27616;51.420;6.788;2024-03-07T05:47:43;2.60;99.90
41928;DHT22;27616;51.420;6.788;2024-03-07T05:50:09;2.60;99.90
41928;DHT22;27616;51.420;6.788;2024-03-07T05:52:35;2.60;99.90
41928;DHT22;27616;51.420;6.788;2024-03-07T05:55:00;2.60;99.90
41928;DHT22;27616;51.420;6.788;2024-03-07T05:57:26;2.60;99.90
41928;DHT22;27616;51.420;6.788;2024-03-07T05:59:51;2.60;99.90
41928;DHT22;27616;51.420;6.788;2024-03-07T06:02:17;2.60;99.90
41928;DHT22;27616;51.420;6.788;2024-03-07T06:04:44;2.60;99.90
41928;DHT22;27616;51.420;6.788;2024-03-07T06:07:10;2.60;99.90
41928;DHT22;27616;51.420;6.788;2024-03-07T06:09:36;2.60;99.90
41928;DHT22;27616;51.420;6.788;2024-03-07T06:12:02;2.60;99.90
41928;DHT22;27616;51.420;6.788;2024-03-07T06:14:29;2.50;99.90
41928;DHT22;27616;51.420;6.788;2024-03-07T06:16:55;2.50;99.90
41928;DHT22;27616;51.420;6.788;2024-03-07T06:19:23;2.50;99.90
41928;DHT22;27616;51.420;6.788;2024-03-07T06:21:49;2.50;99.90
41928;DHT22;27616;51.420;6.788;2024-03-07T06:24:15;2.50;99.90
41928;DHT22;27616;51.420;6.788;2024-03-07T06:26:43;2.50;99.90
41928;DHT22;27616;51.420;6.788;2024-03-07T06:29:25;2.50;99.90
41928;DHT22;27616;51.420;6.788;2024-03-07T06:31:52;2.50;99.90
41928;DHT22;27616;51.420;6.788;2024-03-07T06:34:19;2.50;99.90
41928;DHT22;27616;51.420;6.788;2024-03-07T06:36:45;2.50;99.90
41928;DHT22;27616;51.420;6.788;2024-03-07T06:39:10;2.50;99.90
41928;DHT22;27616;51.420;6.788;2024-03-07T06:41:36;2.50;99.90
41928;DHT22;27616;51.420;6.788;2024-03-07T06:44:02;2.50;99.90
41928;DHT22;27616;51.420;6.788;2024-03-07T06:46:28;2.60;99.90
41928;DHT22;27616;51.420;6.788;2024-03-07T06:48:54;2.60;99.90
41928;DHT22;27616;51.420;6.788;2024-03-07T06:51:21;2.60;99.90
41928;DHT22;27616;51.420;6.788;2024-03-07T06:53:47;2.70;99.90
41928;DHT22;27616;51.420;6.788;2024-03-07T06:56:14;2.70;99.90
41928;DHT22;27616;51.420;6.788;2024-03-07T06:58:40;2.70;99.90
41928;DHT22;27616;51.420;6.788;2024-03-07T07:01:07;2.70;99.90
41928;DHT22;27616;51.420;6.788;2024-03-07T07:03:36;2.80;99.90
41928;DHT22;27616;51.420;6.788;2024-03-07T07:06:02;2.80;99.90
41928;DHT22;27616;51.420;6.788;2024-03-07T07:08:28;2.80;99.90
41928;DHT22;27616;51.420;6.788;2024-03-07T07:10:55;2.90;99.90
41928;DHT22;27616;51.420;6.788;2024-03-07T07:13:21;3.00;99.90
41928;DHT22;27616;51.420;6.788;2024-03-07T07:15:48;3.00;99.90
41928;DHT22;27616;51.420;6.788;2024-03-07T07:18:15;3.10;99.90
41928;DHT22;27616;51.420;6.788;2024-03-07T07:20:40;3.20;99.90
41928;DHT22;27616;51.420;6.788;2024-03-07T07:23:06;3.20;99.90
41928;DHT22;27616;51.420;6.788;2024-03-07T07:25:32;3.30;99.90
41928;DHT22;27616;51.420;6.788;2024-03-07T07:27:58;3.50;99.90
41928;DHT22;27616;51.420;6.788;2024-03-07T07:30:24;3.70;99.90
41928;DHT22;27616;51.420;6.788;2024-03-07T07:32:50;3.90;99.90
41928;DHT22;27616;51.420;6.788;2024-03-07T07:35:17;4.10;99.90
41928;DHT22;27616;51.420;6.788;2024-03-07T07:37:45;4.40;99.90
41928;DHT22;27616;51.420;6.788;2024-03-07T07:40:13;4.60;99.90
41928;DHT22;27616;51.420;6.788;2024-03-07T07:42:43;5.00;99.90
41928;DHT22;27616;51.420;6.788;2024-03-07T07:45:10;5.30;99.90
41928;DHT22;27616;51.420;6.788;2024-03-07T07:47:42;5.70;99.90
41928;DHT22;27616;51.420;6.788;2024-03-07T07:50:10;6.10;99.90
41928;DHT22;27616;51.420;6.788;2024-03-07T07:52:54;6.40;99.90
41928;DHT22;27616;51.420;6.788;2024-03-07T07:55:22;6.60;99.90
41928;DHT22;27616;51.420;6.788;2024-03-07T07:57:50;6.80;99.90
41928;DHT22;27616;51.420;6.788;2024-03-07T08:00:21;7.00;99.90
41928;DHT22;27616;51.420;6.788;2024-03-07T08:03:05;7.20;99.90
41928;DHT22;27616;51.420;6.788;2024-03-07T08:05:37;7.40;99.90
41928;DHT22;27616;51.420;6.788;2024-03-07T08:08:05;7.50;99.90
41928;DHT22;27616;51.420;6.788;2024-03-07T08:10:33;7.30;99.90
41928;DHT22;27616;51.420;6.788;2024-03-07T08:13:00;7.10;99.90
41928;DHT22;27616;51.420;6.788;2024-03-07T08:15:27;7.20;99.90
41928;DHT22;27616;51.420;6.788;2024-03-07T08:17:53;7.10;99.90
41928;DHT22;27616;51.420;6.788;2024-03-07T08:20:21;7.10;99.90
41928;DHT22;27616;51.420;6.788;2024-03-07T08:22:48;7.20;99.90
41928;DHT22;27616;51.420;6.788;2024-03-07T08:25:17;7.40;99.90
41928;DHT22;27616;51.420;6.788;2024-03-07T08:27:45;7.60;99.90
41928;DHT22;27616;51.420;6.788;2024-03-07T08:30:12;7.90;99.90
41928;DHT22;27616;51.420;6.788;2024-03-07T08:32:42;8.10;99.90
41928;DHT22;27616;51.420;6.788;2024-03-07T08:35:08;8.30;99.90
41928;DHT22;27616;51.420;6.788;2024-03-07T08:37:37;8.50;99.90
41928;DHT22;27616;51.420;6.788;2024-03-07T08:40:04;8.70;99.90
41928;DHT22;27616;51.420;6.788;2024-03-07T08:42:33;8.80;99.90
41928;DHT22;27616;51.420;6.788;2024-03-07T08:45:00;9.10;99.90
41928;DHT22;27616;51.420;6.788;2024-03-07T08:47:26;8.90;99.90
41928;DHT22;27616;51.420;6.788;2024-03-07T08:49:54;8.70;99.90
41928;DHT22;27616;51.420;6.788;2024-03-07T08:52:19;8.60;99.90
41928;DHT22;27616;51.420;6.788;2024-03-07T08:54:45;8.80;99.90
41928;DHT22;27616;51.420;6.788;2024-03-07T08:57:11;8.80;99.90
41928;DHT22;27616;51.420;6.788;2024-03-07T08:59:36;8.80;99.90
41928;DHT22;27616;51.420;6.788;2024-03-07T09:02:02;8.80;99.90
41928;DHT22;27616;51.420;6.788;2024-03-07T09:04:28;9.00;99.90
41928;DHT22;27616;51.420;6.788;2024-03-07T09:06:56;9.00;99.90
41928;DHT22;27616;51.420;6.788;2024-03-07T09:09:22;9.10;99.90
41928;DHT22;27616;51.420;6.788;2024-03-07T09:11:47;9.20;99.90
41928;DHT22;27616;51.420;6.788;2024-03-07T09:14:13;9.20;99.90
41928;DHT22;27616;51.420;6.788;2024-03-07T09:16:39;9.60;99.90
41928;DHT22;27616;51.420;6.788;2024-03-07T09:19:05;9.80;99.90
41928;DHT22;27616;51.420;6.788;2024-03-07T09:21:30;10.10;99.90
41928;DHT22;27616;51.420;6.788;2024-03-07T09:23:56;10.30;99.90
41928;DHT22;27616;51.420;6.788;2024-03-07T09:26:22;10.30;99.90
41928;DHT22;27616;51.420;6.788;2024-03-07T09:28:48;10.40;99.90
41928;DHT22;27616;51.420;6.788;2024-03-07T09:31:17;10.20;99.90
41928;DHT22;27616;51.420;6.788;2024-03-07T09:33:42;10.10;99.90
41928;DHT22;27616;51.420;6.788;2024-03-07T09:36:08;10.10;99.90
41928;DHT22;27616;51.420;6.788;2024-03-07T09:38:34;10.40;99.90
41928;DHT22;27616;51.420;6.788;2024-03-07T09:40:59;10.60;99.90
41928;DHT22;27616;51.420;6.788;2024-03-07T09:43:26;10.70;99.90
41928;DHT22;27616;51.420;6.788;2024-03-07T09:45:53;10.70;99.90
41928;DHT22;27616;51.420;6.788;2024-03-07T09:48:21;10.70;99.90
41928;DHT22;27616;51.420;6.788;2024-03-07T09:50:48;10.70;99.90
41928;DHT22;27616;51.420;6.788;2024-03-07T09:53:17;10.70;99.90
41928;DHT22;27616;51.420;6.788;2024-03-07T09:55:43;10.50;99.90
41928;DHT22;27616;51.420;6.788;2024-03-07T09:58:10;10.40;99.90
41928;DHT22;27616;51.420;6.788;2024-03-07T10:00:37;10.10;99.90
41928;DHT22;27616;51.420;6.788;2024-03-07T10:03:07;10.10;99.90
41928;DHT22;27616;51.420;6.788;2024-03-07T10:05:34;10.10;99.90
41928;DHT22;27616;51.420;6.788;2024-03-07T10:08:00;10.10;99.90
41928;DHT22;27616;51.420;6.788;2024-03-07T10:10:26;10.10;99.90
41928;DHT22;27616;51.420;6.788;2024-03-07T10:12:52;10.00;99.90
41928;DHT22;27616;51.420;6.788;2024-03-07T10:15:19;10.00;99.90
41928;DHT22;27616;51.420;6.788;2024-03-07T10:17:45;10.20;99.90
41928;DHT22;27616;51.420;6.788;2024-03-07T10:20:16;10.30;99.90
41928;DHT22;27616;51.420;6.788;2024-03-07T10:22:43;10.40;99.90
41928;DHT22;27616;51.420;6.788;2024-03-07T10:25:09;10.50;99.90
41928;DHT22;27616;51.420;6.788;2024-03-07T10:27:37;11.00;99.90
41928;DHT22;27616;51.420;6.788;2024-03-07T10:30:04;11.60;99.90
41928;DHT22;27616;51.420;6.788;2024-03-07T10:32:32;12.10;99.00
41928;DHT22;27616;51.420;6.788;2024-03-07T10:34:58;12.40;97.80
41928;DHT22;27616;51.420;6.788;2024-03-07T10:37:24;12.20;97.90
41928;DHT22;27616;51.420;6.788;2024-03-07T10:39:51;12.20;97.80
41928;DHT22;27616;51.420;6.788;2024-03-07T10:42:18;12.00;98.60
41928;DHT22;27616;51.420;6.788;2024-03-07T10:44:45;11.60;98.80
41928;DHT22;27616;51.420;6.788;2024-03-07T10:47:16;11.40;99.90
41928;DHT22;27616;51.420;6.788;2024-03-07T10:52:47;12.50;97.90
41928;DHT22;27616;51.420;6.788;2024-03-07T10:58:21;12.80;97.70
41928;DHT22;27616;51.420;6.788;2024-03-07T11:00:50;13.50;97.80
41928;DHT22;27616;51.420;6.788;2024-03-07T11:03:17;13.90;96.90
41928;DHT22;27616;51.420;6.788;2024-03-07T11:05:45;14.80;95.30
41928;DHT22;27616;51.420;6.788;2024-03-07T11:08:12;14.90;95.00
41928;DHT22;27616;51.420;6.788;2024-03-07T11:10:38;15.10;94.80
41928;DHT22;27616;51.420;6.788;2024-03-07T11:13:06;15.40;94.00
41928;DHT22;27616;51.420;6.788;2024-03-07T11:15:33;15.60;92.60
41928;DHT22;27616;51.420;6.788;2024-03-07T11:18:00;15.80;93.00
41928;DHT22;27616;51.420;6.788;2024-03-07T11:20:27;15.80;92.60
41928;DHT22;27616;51.420;6.788;2024-03-07T11:22:53;15.70;92.50
41928;DHT22;27616;51.420;6.788;2024-03-07T11:25:22;16.00;91.20
41928;DHT22;27616;51.420;6.788;2024-03-07T11:27:53;16.00;91.10
41928;DHT22;27616;51.420;6.788;2024-03-07T11:30:21;15.70;92.20
41928;DHT22;27616;51.420;6.788;2024-03-07T11:32:48;15.10;92.80
41928;DHT22;27616;51.420;6.788;2024-03-07T11:35:32;14.90;93.10
41928;DHT22;27616;51.420;6.788;2024-03-07T11:37:58;15.20;93.30
41928;DHT22;27616;51.420;6.788;2024-03-07T11:42:54;15.70;92.20
41928;DHT22;27616;51.420;6.788;2024-03-07T11:45:20;15.40;92.20
41928;DHT22;27616;51.420;6.788;2024-03-07T11:47:54;15.30;92.30
41928;DHT22;27616;51.420;6.788;2024-03-07T11:50:28;15.60;92.10
41928;DHT22;27616;51.420;6.788;2024-03-07T11:52:54;15.60;92.20
41928;DHT22;27616;51.420;6.788;2024-03-07T11:55:21;15.30;92.10
41928;DHT22;27616;51.420;6.788;2024-03-07T11:57:47;14.70;92.90
41928;DHT22;27616;51.420;6.788;2024-03-07T12:00:14;14.40;93.70
41928;DHT22;27616;51.420;6.788;2024-03-07T12:02:41;14.70;93.70
41928;DHT22;27616;51.420;6.788;2024-03-07T12:05:09;15.50;92.90
41928;DHT22;27616;51.420;6.788;2024-03-07T12:07:35;16.00;91.60
41928;DHT22;27616;51.420;6.788;2024-03-07T12:10:01;16.00;91.50
41928;DHT22;27616;51.420;6.788;2024-03-07T12:12:29;15.90;92.80
41928;DHT22;27616;51.420;6.788;2024-03-07T12:14:55;15.60;92.20
41928;DHT22;27616;51.420;6.788;2024-03-07T12:17:22;15.00;92.60
41928;DHT22;27616;51.420;6.788;2024-03-07T12:19:49;14.30;93.10
41928;DHT22;27616;51.420;6.788;2024-03-07T12:22:19;14.00;93.90
41928;DHT22;27616;51.420;6.788;2024-03-07T12:24:59;13.50;94.40
41928;DHT22;27616;51.420;6.788;2024-03-07T12:27:27;13.10;94.80
41928;DHT22;27616;51.420;6.788;2024-03-07T12:29:53;12.60;96.10
41928;DHT22;27616;51.420;6.788;2024-03-07T12:32:19;12.30;97.10
41928;DHT22;27616;51.420;6.788;2024-03-07T12:34:45;11.90;97.90
41928;DHT22;27616;51.420;6.788;2024-03-07T12:37:12;11.90;98.60
41928;DHT22;27616;51.420;6.788;2024-03-07T12:39:44;11.60;99.60
41928;DHT22;27616;51.420;6.788;2024-03-07T12:42:18;11.40;99.90
41928;DHT22;27616;51.420;6.788;2024-03-07T12:44:45;11.30;99.90
41928;DHT22;27616;51.420;6.788;2024-03-07T12:47:12;11.10;99.90
41928;DHT22;27616;51.420;6.788;2024-03-07T12:49:48;11.00;99.90
41928;DHT22;27616;51.420;6.788;2024-03-07T12:52:14;11.00;99.90
41928;DHT22;27616;51.420;6.788;2024-03-07T12:54:41;11.00;99.90
41928;DHT22;27616;51.420;6.788;2024-03-07T12:57:07;10.70;99.90
41928;DHT22;27616;51.420;6.788;2024-03-07T12:59:35;10.70;99.90
41928;DHT22;27616;51.420;6.788;2024-03-07T13:02:03;10.70;99.90
41928;DHT22;27616;51.420;6.788;2024-03-07T13:04:34;10.70;99.90
41928;DHT22;27616;51.420;6.788;2024-03-07T13:07:03;10.50;99.90
41928;DHT22;27616;51.420;6.788;2024-03-07T13:09:30;10.40;99.90
41928;DHT22;27616;51.420;6.788;2024-03-07T13:11:57;10.30;99.90
41928;DHT22;27616;51.420;6.788;2024-03-07T13:14:23;10.20;99.90
41928;DHT22;27616;51.420;6.788;2024-03-07T13:16:48;10.20;99.90
41928;DHT22;27616;51.420;6.788;2024-03-07T13:19:16;10.20;99.90
41928;DHT22;27616;51.420;6.788;2024-03-07T13:21:49;10.30;99.90
41928;DHT22;27616;51.420;6.788;2024-03-07T13:24:15;10.40;99.90
41928;DHT22;27616;51.420;6.788;2024-03-07T13:26:41;10.60;99.90
41928;DHT22;27616;51.420;6.788;2024-03-07T13:29:08;10.60;99.90
41928;DHT22;27616;51.420;6.788;2024-03-07T13:31:35;10.60;99.90
41928;DHT22;27616;51.420;6.788;2024-03-07T13:34:01;10.60;99.90
41928;DHT22;27616;51.420;6.788;2024-03-07T13:36:28;10.70;99.90
41928;DHT22;27616;51.420;6.788;2024-03-07T13:38:54;11.10;99.90
41928;DHT22;27616;51.420;6.788;2024-03-07T13:41:21;11.40;99.90
41928;DHT22;27616;51.420;6.788;2024-03-07T13:43:48;11.40;99.90
41928;DHT22;27616;51.420;6.788;2024-03-07T13:46:14;11.20;99.90
41928;DHT22;27616;51.420;6.788;2024-03-07T13:48:43;11.00;99.90
41928;DHT22;27616;51.420;6.788;2024-03-07T13:51:09;10.80;99.90
41928;DHT22;27616;51.420;6.788;2024-03-07T13:53:35;10.60;99.90
41928;DHT22;27616;51.420;6.788;2024-03-07T13:58:54;10.50;99.90
41928;DHT22;27616;51.420;6.788;2024-03-07T14:01:34;10.70;99.90
41928;DHT22;27616;51.420;6.788;2024-03-07T14:04:38;10.70;99.90
41928;DHT22;27616;51.420;6.788;2024-03-07T14:13:47;10.80;99.90
41928;DHT22;27616;51.420;6.788;2024-03-07T14:22:41;10.60;99.90
41928;DHT22;27616;51.420;6.788;2024-03-07T14:25:39;10.50;99.90
41928;DHT22;27616;51.420;6.788;2024-03-07T14:30:54;10.40;99.90
41928;DHT22;27616;51.420;6.788;2024-03-07T14:33:29;10.30;99.90
41928;DHT22;27616;51.420;6.788;2024-03-07T14:35:59;10.30;99.90
41928;DHT22;27616;51.420;6.788;2024-03-07T14:41:18;10.40;99.90
41928;DHT22;27616;51.420;6.788;2024-03-07T14:43:45;10.50;99.90
41928;DHT22;27616;51.420;6.788;2024-03-07T14:46:12;10.50;99.90
41928;DHT22;27616;51.420;6.788;2024-03-07T14:48:39;10.40;99.90
41928;DHT22;27616;51.420;6.788;2024-03-07T14:51:07;10.40;99.90
41928;DHT22;27616;51.420;6.788;2024-03-07T14:53:33;10.30;99.90
41928;DHT22;27616;51.420;6.788;2024-03-07T14:55:59;10.40;99.90
41928;DHT22;27616;51.420;6.788;2024-03-07T14:58:25;10.30;99.90
41928;DHT22;27616;51.420;6.788;2024-03-07T15:00:52;10.20;99.90
41928;DHT22;27616;51.420;6.788;2024-03-07T15:03:19;10.10;99.90
41928;DHT22;27616;51.420;6.788;2024-03-07T15:05:45;10.10;99.90
41928;DHT22;27616;51.420;6.788;2024-03-07T15:08:12;10.10;99.90
41928;DHT22;27616;51.420;6.788;2024-03-07T15:10:45;10.20;99.90
41928;DHT22;27616;51.420;6.788;2024-03-07T15:13:13;10.20;99.90
41928;DHT22;27616;51.420;6.788;2024-03-07T15:15:39;10.10;99.90
41928;DHT22;27616;51.420;6.788;2024-03-07T15:18:06;10.00;99.70
41928;DHT22;27616;51.420;6.788;2024-03-07T15:20:32;9.90;99.90
41928;DHT22;27616;51.420;6.788;2024-03-07T15:22:59;9.90;99.90
41928;DHT22;27616;51.420;6.788;2024-03-07T15:25:26;10.00;99.90
41928;DHT22;27616;51.420;6.788;2024-03-07T15:27:54;10.10;99.90
41928;DHT22;27616;51.420;6.788;2024-03-07T15:30:22;10.20;99.40
41928;DHT22;27616;51.420;6.788;2024-03-07T15:32:50;10.20;99.50
41928;DHT22;27616;51.420;6.788;2024-03-07T15:35:17;10.20;99.70
41928;DHT22;27616;51.420;6.788;2024-03-07T15:37:47;10.10;99.70
41928;DHT22;27616;51.420;6.788;2024-03-07T15:40:17;10.20;99.00
41928;DHT22;27616;51.420;6.788;2024-03-07T15:42:47;10.30;99.00
41928;DHT22;27616;51.420;6.788;2024-03-07T15:45:20;10.30;98.50
41928;DHT22;27616;51.420;6.788;2024-03-07T15:50:17;10.40;98.20
41928;DHT22;27616;51.420;6.788;2024-03-07T15:52:46;10.50;98.20
41928;DHT22;27616;51.420;6.788;2024-03-07T15:55:12;10.50;97.60
41928;DHT22;27616;51.420;6.788;2024-03-07T15:57:47;10.50;97.10
41928;DHT22;27616;51.420;6.788;2024-03-07T16:00:17;10.40;96.90
41928;DHT22;27616;51.420;6.788;2024-03-07T16:02:58;10.40;97.30
41928;DHT22;27616;51.420;6.788;2024-03-07T16:05:26;10.30;97.20
41928;DHT22;27616;51.420;6.788;2024-03-07T16:07:53;10.40;97.20
41928;DHT22;27616;51.420;6.788;2024-03-07T16:10:20;10.50;97.20
41928;DHT22;27616;51.420;6.788;2024-03-07T16:12:46;10.50;97.10